createdAt,value
2018-03-20T00:01:44.253Z,5.37
2018-03-20T00:04:10.609Z,4.60
2018-03-20T00:06:37.712Z,5.18
2018-03-20T00:09:04.099Z,6.97
2018-03-20T00:11:30.484Z,6.12
2018-03-20T00:13:56.840Z,4.90
2018-03-20T00:16:23.208Z,4.20
2018-03-20T00:18:49.548Z,4.62
2018-03-20T00:21:15.924Z,4.00
2018-03-20T00:23:43.012Z,4.18
2018-03-20T00:26:09.360Z,7.70
2018-03-20T00:28:35.801Z,10.15
2018-03-20T00:31:02.889Z,8.20
2018-03-20T00:33:29.257Z,7.05
2018-03-20T00:35:55.629Z,4.80
2018-03-20T00:38:22.732Z,5.07
2018-03-20T00:40:49.074Z,5.00
2018-03-20T00:43:15.436Z,3.92
2018-03-20T00:45:41.776Z,4.25
2018-03-20T00:48:08.131Z,5.15
2018-03-20T00:50:34.477Z,3.97
2018-03-20T00:53:00.848Z,4.35
2018-03-20T00:55:27.217Z,4.70
2018-03-20T00:57:53.607Z,5.00
2018-03-20T01:00:19.972Z,4.25
2018-03-20T01:02:47.076Z,3.97
2018-03-20T01:05:13.468Z,4.40
2018-03-20T01:07:47.846Z,4.80
2018-03-20T01:10:20.351Z,4.35
2018-03-20T01:12:46.718Z,4.28
2018-03-20T01:15:13.067Z,3.72
2018-03-20T01:17:39.463Z,4.32
2018-03-20T01:20:07.346Z,3.75
2018-03-20T01:22:33.695Z,4.30
2018-03-20T01:25:00.043Z,4.85
2018-03-20T01:27:26.427Z,4.75
2018-03-20T01:29:52.829Z,3.60
2018-03-20T01:32:19.155Z,4.85
2018-03-20T01:34:45.512Z,4.70
2018-03-20T01:37:11.858Z,4.82
2018-03-20T01:39:38.211Z,4.78
2018-03-20T01:42:04.556Z,4.18
2018-03-20T01:44:30.879Z,5.05
2018-03-20T01:46:57.215Z,3.67
2018-03-20T01:49:23.552Z,3.72
2018-03-20T01:51:49.911Z,3.65
2018-03-20T01:54:16.328Z,5.03
2018-03-20T01:56:42.722Z,3.90
2018-03-20T01:59:09.864Z,4.97
2018-03-20T02:01:36.196Z,3.85
2018-03-20T02:04:02.596Z,3.50
2018-03-20T02:06:29.667Z,4.62
2018-03-20T02:08:57.787Z,3.70
2018-03-20T02:11:24.110Z,4.95
2018-03-20T02:13:51.095Z,3.80
2018-03-20T02:16:17.434Z,4.05
2018-03-20T02:18:43.743Z,4.12
2018-03-20T02:21:10.103Z,5.07
2018-03-20T02:23:36.436Z,4.82
2018-03-20T02:26:02.824Z,3.22
2018-03-20T02:28:29.155Z,3.75
2018-03-20T02:30:56.312Z,4.90
2018-03-20T02:33:22.639Z,3.85
2018-03-20T02:35:48.986Z,4.60
2018-03-20T02:38:15.347Z,5.43
2018-03-20T02:40:41.722Z,4.50
2018-03-20T02:43:08.791Z,5.07
2018-03-20T02:45:35.143Z,5.62
2018-03-20T02:48:01.466Z,5.43
2018-03-20T02:50:27.860Z,4.43
2018-03-20T02:52:54.196Z,4.85
2018-03-20T02:55:20.553Z,5.37
2018-03-20T02:57:47.687Z,4.40
2018-03-20T03:00:14.764Z,4.97
2018-03-20T03:02:41.127Z,4.50
2018-03-20T03:05:07.762Z,5.32
2018-03-20T03:07:34.167Z,4.50
2018-03-20T03:10:01.264Z,4.68
2018-03-20T03:12:27.640Z,4.62
2018-03-20T03:14:53.979Z,4.45
2018-03-20T03:17:21.091Z,5.28
2018-03-20T03:19:47.427Z,4.47
2018-03-20T03:22:13.790Z,5.25
2018-03-20T03:24:40.135Z,4.10
2018-03-20T03:27:06.556Z,4.43
2018-03-20T03:29:32.955Z,5.30
2018-03-20T03:31:59.336Z,4.97
2018-03-20T03:34:25.667Z,4.30
2018-03-20T03:36:52.759Z,5.05
2018-03-20T03:39:19.103Z,4.05
2018-03-20T03:41:45.511Z,4.60
2018-03-20T03:44:11.863Z,4.95
2018-03-20T03:46:38.956Z,4.70
2018-03-20T03:49:05.307Z,4.72
2018-03-20T03:51:31.710Z,4.70
2018-03-20T03:53:58.059Z,4.95
2018-03-20T03:56:24.456Z,5.10
2018-03-20T03:58:50.779Z,4.85
2018-03-20T04:01:17.124Z,5.43
2018-03-20T04:03:43.464Z,5.73
2018-03-20T04:06:09.816Z,4.87
2018-03-20T04:08:36.233Z,5.15
2018-03-20T04:11:02.583Z,5.93
2018-03-20T04:13:29.001Z,4.20
2018-03-20T04:15:55.367Z,5.47
2018-03-20T04:18:21.728Z,6.18
2018-03-20T04:20:48.049Z,5.30
2018-03-20T04:23:14.384Z,5.72
2018-03-20T04:25:40.774Z,5.82
2018-03-20T04:28:07.136Z,5.05
2018-03-20T04:30:33.515Z,3.95
2018-03-20T04:32:59.915Z,4.70
2018-03-20T04:35:26.252Z,5.80
2018-03-20T04:37:52.612Z,5.85
2018-03-20T04:40:19.690Z,5.05
2018-03-20T04:42:46.046Z,5.70
2018-03-20T04:45:12.467Z,4.72
2018-03-20T04:47:38.829Z,5.22
2018-03-20T04:50:06.427Z,6.05
2018-03-20T04:52:32.896Z,5.60
2018-03-20T04:55:00.037Z,5.12
2018-03-20T04:57:27.208Z,4.50
2018-03-20T04:59:53.571Z,5.80
2018-03-20T05:02:19.908Z,6.00
2018-03-20T05:04:47.840Z,6.68
2018-03-20T05:07:14.227Z,5.60
2018-03-20T05:09:40.648Z,5.68
2018-03-20T05:12:07.082Z,5.75
2018-03-20T05:14:33.465Z,4.00
2018-03-20T05:16:59.879Z,5.68
2018-03-20T05:22:36.946Z,6.30
2018-03-20T05:25:03.516Z,4.90
2018-03-20T05:27:30.912Z,5.97
2018-03-20T05:29:57.384Z,6.65
2018-03-20T05:32:24.578Z,5.85
2018-03-20T05:34:51.059Z,7.43
2018-03-20T05:37:17.502Z,5.45
2018-03-20T05:39:43.968Z,8.43
2018-03-20T05:42:10.439Z,4.93
2018-03-20T05:44:36.954Z,6.43
2018-03-20T05:47:04.387Z,6.40
2018-03-20T05:49:38.082Z,8.40
2018-03-20T05:52:04.615Z,6.70
2018-03-20T05:54:31.114Z,6.72
2018-03-20T05:56:57.671Z,12.68
2018-03-20T05:59:24.245Z,11.25
2018-03-20T06:01:50.640Z,6.32
2018-03-20T06:04:17.837Z,7.43
2018-03-20T06:06:44.313Z,8.55
2018-03-20T06:09:10.735Z,6.45
2018-03-20T06:11:37.203Z,7.20
2018-03-20T06:14:03.636Z,7.10
2018-03-20T06:16:30.127Z,7.05
2018-03-20T06:18:56.582Z,7.22
2018-03-20T06:21:23.908Z,9.48
2018-03-20T06:23:51.175Z,10.93
2018-03-20T06:26:17.624Z,14.77
2018-03-20T06:28:44.030Z,6.93
2018-03-20T06:31:10.472Z,8.27
2018-03-20T06:33:37.708Z,11.93
2018-03-20T06:36:04.163Z,8.18
2018-03-20T06:38:31.311Z,13.50
2018-03-20T06:40:58.457Z,12.50
2018-03-20T06:43:24.981Z,7.55
2018-03-20T06:45:51.376Z,11.17
2018-03-20T06:48:17.803Z,13.02
2018-03-20T06:50:44.156Z,10.40
2018-03-20T06:53:10.646Z,9.07
2018-03-20T06:55:37.095Z,11.93
2018-03-20T06:58:03.524Z,10.93
2018-03-20T07:00:30.043Z,9.50
2018-03-20T07:02:56.510Z,9.90
2018-03-20T07:05:22.947Z,9.60
2018-03-20T07:07:49.408Z,8.50
2018-03-20T07:10:15.831Z,9.73
2018-03-20T07:12:43.237Z,7.70
2018-03-20T07:15:09.632Z,9.40
2018-03-20T07:17:36.035Z,10.50
2018-03-20T07:20:03.087Z,13.77
2018-03-20T07:22:29.511Z,18.37
2018-03-20T07:24:55.905Z,17.30
2018-03-20T07:27:22.379Z,14.40
2018-03-20T07:29:48.796Z,8.30
2018-03-20T07:32:15.187Z,11.13
2018-03-20T07:34:41.575Z,9.03
2018-03-20T07:37:07.955Z,9.60
2018-03-20T07:39:35.079Z,8.70
2018-03-20T07:42:01.486Z,8.57
2018-03-20T07:44:28.769Z,8.33
2018-03-20T07:46:55.149Z,8.40
2018-03-20T07:49:21.583Z,8.93
2018-03-20T07:51:48.297Z,8.93
2018-03-20T07:54:15.448Z,7.80
2018-03-20T07:56:41.839Z,9.13
2018-03-20T07:59:08.287Z,8.17
2018-03-20T08:01:35.663Z,5.77
2018-03-20T08:04:02.139Z,6.90
2018-03-20T08:06:28.606Z,7.37
2018-03-20T08:08:55.008Z,7.83
2018-03-20T08:11:21.422Z,6.03
2018-03-20T08:13:47.845Z,5.37
2018-03-20T08:16:14.335Z,5.57
2018-03-20T08:18:40.695Z,4.53
2018-03-20T08:21:07.809Z,3.70
2018-03-20T08:23:34.244Z,5.00
2018-03-20T08:26:00.646Z,4.13
2018-03-20T08:28:27.799Z,4.30
2018-03-20T08:30:54.959Z,3.47
2018-03-20T08:33:22.151Z,4.10
2018-03-20T08:35:48.675Z,3.60
2018-03-20T08:38:15.033Z,3.90
2018-03-20T08:40:42.230Z,3.07
2018-03-20T08:43:08.647Z,2.87
2018-03-20T08:45:35.063Z,4.03
2018-03-20T08:48:01.449Z,3.87
2018-03-20T08:50:29.283Z,4.33
2018-03-20T08:52:58.291Z,3.50
2018-03-20T08:55:24.913Z,3.13
2018-03-20T08:57:51.273Z,3.00
2018-03-20T09:00:17.713Z,3.40
2018-03-20T09:02:44.102Z,3.17
2018-03-20T09:05:10.528Z,3.40
2018-03-20T09:07:36.959Z,2.50
2018-03-20T09:10:05.039Z,3.40
2018-03-20T09:12:32.108Z,2.77
2018-03-20T09:14:58.681Z,3.07
2018-03-20T09:17:25.796Z,2.90
2018-03-20T09:19:52.466Z,3.33
2018-03-20T09:22:19.342Z,2.77
2018-03-20T09:24:46.003Z,3.10
2018-03-20T09:27:12.492Z,3.60
2018-03-20T09:29:39.779Z,3.50
2018-03-20T09:32:07.131Z,2.63
2018-03-20T09:34:34.367Z,2.20
2018-03-20T09:37:00.858Z,3.17
2018-03-20T09:39:27.300Z,3.93
2018-03-20T09:41:53.699Z,2.07
2018-03-20T09:44:20.859Z,2.03
2018-03-20T09:46:48.039Z,2.00
2018-03-20T09:49:15.204Z,3.00
2018-03-20T09:51:41.741Z,3.30
2018-03-20T09:54:08.164Z,3.63
2018-03-20T09:56:34.599Z,3.10
2018-03-20T09:59:01.119Z,1.83
2018-03-20T10:01:27.659Z,2.10
2018-03-20T10:03:54.059Z,2.70
2018-03-20T10:06:20.499Z,2.83
2018-03-20T10:08:46.932Z,2.57
2018-03-20T10:11:13.916Z,1.37
2018-03-20T10:13:40.337Z,2.17
2018-03-20T10:16:06.714Z,2.57
2018-03-20T10:18:33.162Z,1.90
2018-03-20T10:20:59.572Z,2.27
2018-03-20T10:23:25.967Z,2.43
2018-03-20T10:25:52.354Z,2.90
2018-03-20T10:28:19.547Z,1.93
2018-03-20T10:30:45.965Z,1.23
2018-03-20T10:33:12.379Z,1.80
2018-03-20T10:35:39.525Z,1.00
2018-03-20T10:38:07.034Z,1.50
2018-03-20T10:40:34.132Z,1.47
2018-03-20T10:43:00.596Z,1.70
2018-03-20T10:45:27.010Z,1.83
2018-03-20T10:47:54.272Z,1.80
2018-03-20T10:50:20.782Z,1.47
2018-03-20T10:52:47.240Z,1.53
2018-03-20T10:55:13.672Z,1.30
2018-03-20T10:57:40.118Z,1.60
2018-03-20T11:00:06.519Z,1.10
2018-03-20T11:02:32.939Z,1.27
2018-03-20T11:04:59.349Z,1.10
2018-03-20T11:07:25.749Z,1.50
2018-03-20T11:09:52.212Z,1.20
2018-03-20T11:12:19.433Z,1.13
2018-03-20T11:14:45.834Z,1.37
2018-03-20T11:17:12.216Z,1.27
2018-03-20T11:19:38.678Z,1.20
2018-03-20T11:22:05.162Z,1.03
2018-03-20T11:24:31.555Z,1.00
2018-03-20T11:26:58.002Z,1.40
2018-03-20T11:29:25.328Z,0.93
2018-03-20T11:31:51.824Z,1.53
2018-03-20T11:34:18.243Z,1.40
2018-03-20T11:36:44.687Z,1.33
2018-03-20T11:39:11.208Z,1.10
2018-03-20T11:41:37.633Z,1.10
2018-03-20T11:44:04.265Z,1.70
2018-03-20T11:46:30.668Z,1.10
2018-03-20T11:48:57.840Z,1.17
2018-03-20T11:51:24.229Z,1.43
2018-03-20T11:53:50.597Z,1.60
2018-03-20T11:56:17.075Z,1.40
2018-03-20T11:58:43.774Z,1.50
2018-03-20T12:01:11.036Z,1.03
2018-03-20T12:03:38.696Z,1.10
2018-03-20T12:06:05.965Z,0.90
2018-03-20T12:08:45.132Z,1.10
2018-03-20T12:11:11.792Z,1.13
2018-03-20T12:13:38.971Z,0.87
2018-03-20T12:16:05.491Z,0.77
2018-03-20T12:18:32.229Z,1.10
2018-03-20T12:20:58.944Z,0.87
2018-03-20T12:23:25.343Z,1.10
2018-03-20T12:25:51.769Z,1.30
2018-03-20T12:28:18.189Z,0.60
2018-03-20T12:30:45.315Z,0.87
2018-03-20T12:33:11.684Z,0.80
2018-03-20T12:35:38.057Z,0.60
2018-03-20T12:38:04.545Z,0.90
2018-03-20T12:40:31.034Z,1.20
2018-03-20T12:42:57.485Z,1.10
2018-03-20T12:45:24.647Z,1.57
2018-03-20T12:47:51.079Z,1.43
2018-03-20T12:50:17.463Z,0.93
2018-03-20T12:52:44.695Z,0.80
2018-03-20T12:55:11.064Z,1.40
2018-03-20T12:57:37.600Z,1.10
2018-03-20T13:00:04.683Z,1.13
2018-03-20T13:02:31.128Z,1.20
2018-03-20T13:04:57.448Z,1.20
2018-03-20T13:07:23.851Z,0.90
2018-03-20T13:09:51.021Z,1.00
2018-03-20T13:12:18.176Z,1.53
2018-03-20T13:14:44.550Z,1.10
2018-03-20T13:17:10.951Z,0.90
2018-03-20T13:19:38.160Z,1.17
2018-03-20T13:22:04.552Z,0.90
2018-03-20T13:24:32.399Z,0.80
2018-03-20T13:26:59.599Z,1.10
2018-03-20T13:29:26.241Z,1.07
2018-03-20T13:31:52.604Z,1.20
2018-03-20T13:34:19.699Z,1.20
2018-03-20T13:36:46.103Z,1.37
2018-03-20T13:39:13.211Z,0.80
2018-03-20T13:41:39.652Z,0.80
2018-03-20T13:44:06.762Z,1.00
2018-03-20T13:46:33.146Z,0.90
2018-03-20T13:49:00.252Z,0.93
2018-03-20T13:51:26.914Z,0.80
2018-03-20T13:53:54.063Z,1.00
2018-03-20T13:56:21.152Z,1.10
2018-03-20T13:58:47.552Z,0.70
2018-03-20T14:01:13.958Z,1.00
2018-03-20T14:03:40.403Z,0.90
2018-03-20T14:06:07.613Z,1.33
2018-03-20T14:08:33.985Z,1.40
2018-03-20T14:11:00.331Z,1.30
2018-03-20T14:13:26.816Z,1.17
2018-03-20T14:15:53.225Z,0.90
2018-03-20T14:18:19.660Z,1.40
2018-03-20T14:20:46.795Z,1.30
2018-03-20T14:23:13.260Z,0.90
2018-03-20T14:25:40.044Z,0.90
2018-03-20T14:28:06.440Z,0.90
2018-03-20T14:30:32.903Z,0.73
2018-03-20T14:32:59.392Z,0.90
2018-03-20T14:35:25.792Z,1.00
2018-03-20T14:37:52.210Z,1.07
2018-03-20T14:40:18.582Z,0.90
2018-03-20T14:42:44.995Z,0.90
2018-03-20T14:45:11.436Z,0.60
2018-03-20T14:47:37.821Z,0.97
2018-03-20T14:50:05.158Z,0.80
2018-03-20T14:52:31.599Z,0.60
2018-03-20T14:54:58.050Z,0.60
2018-03-20T14:57:25.422Z,0.80
2018-03-20T14:59:51.887Z,0.77
2018-03-20T15:02:18.283Z,0.90
2018-03-20T15:04:44.666Z,0.90
2018-03-20T15:07:11.071Z,0.80
2018-03-20T15:09:37.559Z,1.00
2018-03-20T15:12:04.090Z,0.97
2018-03-20T15:14:30.504Z,1.10
2018-03-20T15:16:56.939Z,0.93
2018-03-20T15:19:24.103Z,0.97
2018-03-20T15:21:51.247Z,0.97
2018-03-20T15:24:17.719Z,1.00
2018-03-20T15:26:44.187Z,0.90
2018-03-20T15:29:10.663Z,0.70
2018-03-20T15:31:37.825Z,0.80
2018-03-20T15:34:05.278Z,0.60
2018-03-20T15:36:32.354Z,1.00
2018-03-20T15:38:58.789Z,0.70
2018-03-20T15:41:25.184Z,1.00
2018-03-20T15:43:51.588Z,1.03
2018-03-20T15:46:18.103Z,1.20
2018-03-20T15:48:44.575Z,0.50
2018-03-20T15:51:11.759Z,0.90
2018-03-20T15:53:38.150Z,0.80
2018-03-20T15:56:05.341Z,0.93
2018-03-20T15:58:31.736Z,1.00
2018-03-20T16:00:58.107Z,0.50
2018-03-20T16:03:25.243Z,0.90
2018-03-20T16:05:51.683Z,0.90
2018-03-20T16:08:18.119Z,1.10
2018-03-20T16:10:44.565Z,0.90
2018-03-20T16:13:11.666Z,0.70
2018-03-20T16:15:38.066Z,0.90
2018-03-20T16:18:04.575Z,1.47
2018-03-20T16:20:31.050Z,0.90
2018-03-20T16:22:57.520Z,1.10
2018-03-20T16:25:23.988Z,1.00
2018-03-20T16:27:50.412Z,1.03
2018-03-20T16:30:16.981Z,0.80
2018-03-20T16:32:43.515Z,0.67
2018-03-20T16:35:09.997Z,1.17
2018-03-20T16:37:36.500Z,0.90
2018-03-20T16:40:03.268Z,0.60
2018-03-20T16:42:30.473Z,1.17
2018-03-20T16:44:57.714Z,0.77
2018-03-20T16:47:24.229Z,1.37
2018-03-20T16:49:50.692Z,0.50
2018-03-20T16:52:18.645Z,0.70
2018-03-20T16:54:46.547Z,1.27
2018-03-20T16:57:13.696Z,1.10
2018-03-20T16:59:40.087Z,0.80
2018-03-20T17:02:06.561Z,0.73
2018-03-20T17:04:33.018Z,1.00
2018-03-20T17:06:59.458Z,1.40
2018-03-20T17:09:25.797Z,0.90
2018-03-20T17:11:52.996Z,1.37
2018-03-20T17:14:19.426Z,1.50
2018-03-20T17:16:45.821Z,0.80
2018-03-20T17:19:12.204Z,1.00
2018-03-20T17:21:38.652Z,1.30
2018-03-20T17:24:05.200Z,1.20
2018-03-20T17:26:31.566Z,2.70
2018-03-20T17:28:57.962Z,1.43
2018-03-20T17:31:24.371Z,1.27
2018-03-20T17:33:50.835Z,1.20
2018-03-20T17:36:17.207Z,1.00
2018-03-20T17:38:43.656Z,1.37
2018-03-20T17:41:10.159Z,1.10
2018-03-20T17:43:38.124Z,2.63
2018-03-20T17:46:04.618Z,3.07
2018-03-20T17:48:31.025Z,2.03
2018-03-20T17:50:57.388Z,1.60
2018-03-20T17:53:23.843Z,1.43
2018-03-20T17:55:50.279Z,1.70
2018-03-20T17:58:16.822Z,1.10
2018-03-20T18:00:44.016Z,1.47
2018-03-20T18:03:10.469Z,1.57
2018-03-20T18:05:36.947Z,2.17
2018-03-20T18:08:04.132Z,0.90
2018-03-20T18:10:31.251Z,1.50
2018-03-20T18:12:57.779Z,1.60
2018-03-20T18:15:24.212Z,1.73
2018-03-20T18:17:50.562Z,1.60
2018-03-20T18:20:16.938Z,1.90
2018-03-20T18:22:44.077Z,2.30
2018-03-20T18:25:11.199Z,2.40
2018-03-20T18:27:37.577Z,1.60
2018-03-20T18:30:04.676Z,1.40
2018-03-20T18:32:31.135Z,0.90
2018-03-20T18:34:57.489Z,1.27
2018-03-20T18:37:23.862Z,1.70
2018-03-20T18:39:51.100Z,1.60
2018-03-20T18:42:17.496Z,1.53
2018-03-20T18:44:43.910Z,1.33
2018-03-20T18:47:10.991Z,0.97
2018-03-20T18:49:37.340Z,1.80
2018-03-20T18:52:04.016Z,1.70
2018-03-20T18:54:30.597Z,1.00
2018-03-20T18:56:57.695Z,1.63
2018-03-20T18:59:24.072Z,2.20
2018-03-20T19:01:50.476Z,2.10
2018-03-20T19:04:16.903Z,3.00
2018-03-20T19:06:44.013Z,1.93
2018-03-20T19:09:10.343Z,3.30
2018-03-20T19:11:36.704Z,2.13
2018-03-20T19:14:03.114Z,2.53
2018-03-20T19:16:29.499Z,2.80
2018-03-20T19:18:55.860Z,2.50
2018-03-20T19:21:22.243Z,3.27
2018-03-20T19:23:48.608Z,6.00
2018-03-20T19:26:15.039Z,4.00
2018-03-20T19:28:41.403Z,2.17
2018-03-20T19:31:07.896Z,2.00
2018-03-20T19:33:34.250Z,2.80
2018-03-20T19:36:01.339Z,1.80
2018-03-20T19:38:27.741Z,2.77
2018-03-20T19:40:54.160Z,1.83
2018-03-20T19:43:20.537Z,1.37
2018-03-20T19:45:46.903Z,2.73
2018-03-20T19:48:13.218Z,2.77
2018-03-20T19:50:39.557Z,2.33
2018-03-20T19:53:05.920Z,1.37
2018-03-20T19:55:32.983Z,1.80
2018-03-20T19:58:00.108Z,1.60
2018-03-20T20:00:26.505Z,1.80
2018-03-20T20:02:52.900Z,2.67
2018-03-20T20:05:19.248Z,2.20
2018-03-20T20:07:45.634Z,2.10
2018-03-20T20:10:11.956Z,2.37
2018-03-20T20:12:38.316Z,1.20
2018-03-20T20:15:05.192Z,1.20
2018-03-20T20:17:31.597Z,2.10
2018-03-20T20:19:58.672Z,2.70
2018-03-20T20:22:25.036Z,3.47
2018-03-20T20:24:51.364Z,2.13
2018-03-20T20:27:17.752Z,1.30
2018-03-20T20:29:44.135Z,1.63
2018-03-20T20:32:10.592Z,1.77
2018-03-20T20:34:36.988Z,2.27
2018-03-20T20:37:03.308Z,1.33
2018-03-20T20:39:29.636Z,1.33
2018-03-20T20:41:56.015Z,1.70
2018-03-20T20:44:23.868Z,1.83
2018-03-20T20:46:50.191Z,1.47
2018-03-20T20:49:16.552Z,1.47
2018-03-20T20:51:42.931Z,1.10
2018-03-20T20:54:09.296Z,1.10
2018-03-20T20:56:35.664Z,1.63
2018-03-20T20:59:02.008Z,1.43
2018-03-20T21:01:28.395Z,1.17
2018-03-20T21:03:54.759Z,2.70
2018-03-20T21:06:21.883Z,1.27
2018-03-20T21:08:48.234Z,1.77
2018-03-20T21:11:14.632Z,1.23
2018-03-20T21:13:41.048Z,1.40
2018-03-20T21:16:08.154Z,1.83
2018-03-20T21:18:34.529Z,2.47
2018-03-20T21:21:00.858Z,3.73
2018-03-20T21:23:27.195Z,1.70
2018-03-20T21:25:53.576Z,1.80
2018-03-20T21:28:20.014Z,1.30
2018-03-20T21:30:47.155Z,1.77
2018-03-20T21:33:13.565Z,1.20
2018-03-20T21:35:39.945Z,1.40
2018-03-20T21:38:06.281Z,1.80
2018-03-20T21:40:33.424Z,1.77
2018-03-20T21:42:59.783Z,1.97
2018-03-20T21:45:26.147Z,1.67
2018-03-20T21:47:53.301Z,2.33
2018-03-20T21:50:19.692Z,2.43
2018-03-20T21:52:46.051Z,2.00
2018-03-20T21:55:12.441Z,1.03
2018-03-20T21:57:39.540Z,1.50
2018-03-20T22:00:06.174Z,2.43
2018-03-20T22:02:32.587Z,1.27
2018-03-20T22:04:59.739Z,1.40
2018-03-20T22:07:26.088Z,1.40
2018-03-20T22:09:52.481Z,1.07
2018-03-20T22:12:18.876Z,2.20
2018-03-20T22:14:46.004Z,0.93
2018-03-20T22:17:12.395Z,2.30
2018-03-20T22:19:39.500Z,1.03
2018-03-20T22:22:06.560Z,1.53
2018-03-20T22:24:32.903Z,1.00
2018-03-20T22:26:59.279Z,0.93
2018-03-20T22:29:25.657Z,1.40
2018-03-20T22:31:51.987Z,1.40
2018-03-20T22:34:19.076Z,1.67
2018-03-20T22:36:45.470Z,0.97
2018-03-20T22:39:11.833Z,1.53
2018-03-20T22:41:38.278Z,1.30
2018-03-20T22:44:04.683Z,1.87
2018-03-20T22:46:30.993Z,1.33
2018-03-20T22:48:58.064Z,1.30
2018-03-20T22:51:24.451Z,1.20
2018-03-20T22:53:51.575Z,1.57
2018-03-20T22:56:17.991Z,1.83
2018-03-20T22:58:45.087Z,2.73
2018-03-20T23:01:11.479Z,2.33
2018-03-20T23:03:37.805Z,2.07
2018-03-20T23:06:04.203Z,1.97
2018-03-20T23:08:30.554Z,1.97
2018-03-20T23:10:56.903Z,1.42
2018-03-20T23:13:23.290Z,2.30
2018-03-20T23:15:50.448Z,3.12
2018-03-20T23:18:17.607Z,1.65
2018-03-20T23:20:43.917Z,1.80
2018-03-20T23:23:10.275Z,1.10
2018-03-20T23:25:37.439Z,1.80
2018-03-20T23:28:04.572Z,1.00
2018-03-20T23:30:30.943Z,1.35
2018-03-20T23:32:57.336Z,1.30
2018-03-20T23:35:24.391Z,1.40
2018-03-20T23:37:51.474Z,1.30
2018-03-20T23:40:18.517Z,1.87
2018-03-20T23:42:45.609Z,1.52
2018-03-20T23:45:11.948Z,1.80
2018-03-20T23:47:38.286Z,1.80
2018-03-20T23:50:05.187Z,1.50
2018-03-20T23:52:31.629Z,1.70
2018-03-20T23:54:58.008Z,1.77
2018-03-20T23:57:25.107Z,1.60
2018-03-20T23:59:51.463Z,1.40
